createdAt,value
2022-09-06T00:01:23.573Z,19.76
2022-09-06T00:03:52.803Z,19.60
2022-09-06T00:06:22.658Z,19.64
2022-09-06T00:08:53.396Z,19.49
2022-09-06T00:11:22.631Z,19.45
2022-09-06T00:13:51.924Z,19.75
2022-09-06T00:16:26.322Z,19.71
2022-09-06T00:18:58.129Z,19.55
2022-09-06T00:21:30.943Z,19.67
2022-09-06T00:24:01.819Z,19.59
2022-09-06T00:26:31.275Z,19.56
2022-09-06T00:29:00.427Z,19.65
2022-09-06T00:31:30.072Z,19.51
2022-09-06T00:33:59.050Z,19.72
2022-09-06T00:36:28.209Z,19.78
2022-09-06T00:38:57.237Z,19.61
2022-09-06T00:41:28.325Z,19.50
2022-09-06T00:43:57.815Z,19.44
2022-09-06T00:46:31.028Z,19.40
2022-09-06T00:49:04.121Z,19.34
2022-09-06T00:51:34.410Z,19.52
2022-09-06T00:54:06.045Z,19.73
2022-09-06T00:56:42.433Z,19.81
2022-09-06T00:59:11.881Z,19.70
2022-09-06T01:01:41.069Z,19.57
2022-09-06T01:04:11.161Z,19.51
2022-09-06T01:06:53.152Z,19.43
2022-09-06T01:09:36.214Z,19.36
2022-09-06T01:12:32.682Z,19.29
2022-09-06T01:15:22.278Z,19.42
2022-09-06T01:18:07.850Z,19.23
2022-09-06T01:20:59.562Z,19.18
2022-09-06T01:24:22.079Z,19.16
2022-09-06T01:27:56.586Z,19.41
2022-09-06T01:30:27.991Z,19.43
2022-09-06T01:33:02.933Z,19.48
2022-09-06T01:35:39.768Z,19.37
2022-09-06T01:38:10.079Z,19.40
2022-09-06T01:40:39.275Z,19.28
2022-09-06T01:43:13.221Z,19.22
2022-09-06T01:45:58.954Z,19.10
2022-09-06T01:48:41.371Z,19.08
2022-09-06T01:51:23.061Z,19.07
2022-09-06T01:54:15.014Z,19.09
2022-09-06T01:56:58.054Z,19.35
2022-09-06T01:59:52.571Z,19.52
2022-09-06T02:02:34.880Z,19.19
2022-09-06T02:05:10.916Z,19.21
2022-09-06T02:07:41.301Z,19.02
2022-09-06T02:10:15.893Z,19.23
2022-09-06T02:12:50.920Z,19.37
2022-09-06T02:15:25.573Z,19.43
2022-09-06T02:18:04.920Z,19.31
2022-09-06T02:20:39.206Z,19.27
2022-09-06T02:23:09.696Z,19.05
2022-09-06T02:25:44.426Z,18.93
2022-09-06T02:28:14.211Z,18.88
2022-09-06T02:30:48.987Z,18.77
2022-09-06T02:33:23.442Z,18.70
2022-09-06T02:35:57.211Z,18.68
2022-09-06T02:38:30.238Z,18.81
2022-09-06T02:40:59.680Z,18.74
2022-09-06T02:43:30.059Z,18.72
2022-09-06T02:45:59.473Z,18.88
2022-09-06T02:48:30.562Z,18.61
2022-09-06T02:51:00.044Z,18.65
2022-09-06T02:53:29.039Z,18.61
2022-09-06T02:55:58.709Z,18.59
2022-09-06T02:58:29.591Z,18.48
2022-09-06T03:00:59.006Z,18.95
2022-09-06T03:03:29.944Z,19.17
2022-09-06T03:05:59.371Z,19.14
2022-09-06T03:08:33.710Z,19.12
2022-09-06T03:11:03.097Z,18.81
2022-09-06T03:13:32.341Z,18.78
2022-09-06T03:16:04.090Z,18.58
2022-09-06T03:18:37.626Z,18.42
2022-09-06T03:21:07.552Z,18.47
2022-09-06T03:23:39.566Z,18.65
2022-09-06T03:26:09.093Z,18.71
2022-09-06T03:28:38.194Z,18.86
2022-09-06T03:31:07.664Z,18.80
2022-09-06T03:33:38.416Z,18.65
2022-09-06T03:36:08.339Z,18.74
2022-09-06T03:38:37.167Z,19.02
2022-09-06T03:41:06.381Z,18.81
2022-09-06T03:43:35.515Z,18.55
2022-09-06T03:46:04.550Z,18.59
2022-09-06T03:48:33.655Z,18.59
2022-09-06T03:51:04.283Z,18.58
2022-09-06T03:53:33.385Z,18.30
2022-09-06T03:56:03.279Z,18.30
2022-09-06T03:58:34.107Z,18.61
2022-09-06T04:01:07.951Z,18.45
2022-09-06T04:03:39.362Z,18.68
2022-09-06T04:06:10.340Z,18.46
2022-09-06T04:08:40.069Z,18.52
2022-09-06T04:11:09.293Z,18.50
2022-09-06T04:13:38.507Z,18.61
2022-09-06T04:16:08.524Z,18.96
2022-09-06T04:18:37.868Z,18.89
2022-09-06T04:21:07.226Z,19.01
2022-09-06T04:23:40.085Z,19.08
2022-09-06T04:26:09.219Z,18.81
2022-09-06T04:28:38.395Z,19.02
2022-09-06T04:31:07.543Z,19.03
2022-09-06T04:33:38.928Z,18.97
2022-09-06T04:36:11.022Z,18.98
2022-09-06T04:38:44.374Z,18.80
2022-09-06T04:41:16.547Z,18.66
2022-09-06T04:43:45.851Z,20.15
2022-09-06T04:46:24.236Z,18.87
2022-09-06T04:48:55.676Z,18.72
2022-09-06T04:51:26.489Z,18.72
2022-09-06T04:53:57.071Z,18.38
2022-09-06T04:56:27.995Z,18.77
2022-09-06T04:58:57.694Z,18.79
2022-09-06T05:01:27.344Z,18.55
2022-09-06T05:03:57.224Z,18.42
2022-09-06T05:06:26.841Z,18.24
2022-09-06T05:08:57.236Z,18.13
2022-09-06T05:11:26.444Z,18.20
2022-09-06T05:13:55.881Z,18.18
2022-09-06T05:16:24.862Z,18.59
2022-09-06T05:18:53.747Z,18.47
2022-09-06T05:21:22.990Z,18.66
2022-09-06T05:23:55.394Z,18.49
2022-09-06T05:26:28.475Z,18.73
2022-09-06T05:28:57.439Z,18.77
2022-09-06T05:31:29.238Z,18.69
2022-09-06T05:33:59.169Z,18.76
2022-09-06T05:36:29.707Z,18.81
2022-09-06T05:38:59.776Z,18.76
2022-09-06T05:41:30.456Z,18.92
2022-09-06T05:43:59.295Z,18.86
2022-09-06T05:46:28.411Z,19.07
2022-09-06T05:49:01.269Z,18.91
2022-09-06T05:51:31.271Z,19.01
2022-09-06T05:54:01.024Z,18.66
2022-09-06T05:56:31.496Z,18.89
2022-09-06T05:59:00.933Z,19.04
2022-09-06T06:01:32.059Z,18.89
2022-09-06T06:04:03.653Z,19.03
2022-09-06T06:06:35.032Z,18.93
2022-09-06T06:09:04.413Z,18.88
2022-09-06T06:11:35.075Z,18.81
2022-09-06T06:14:04.970Z,18.85
2022-09-06T06:16:34.210Z,18.94
2022-09-06T06:19:04.789Z,19.00
2022-09-06T06:21:35.362Z,19.18
2022-09-06T06:24:06.354Z,19.21
2022-09-06T06:26:38.079Z,19.30
2022-09-06T06:29:09.850Z,19.21
2022-09-06T06:31:40.326Z,19.42
2022-09-06T06:34:09.968Z,19.50
2022-09-06T06:36:39.393Z,19.45
2022-09-06T06:39:09.791Z,19.45
2022-09-06T06:41:40.671Z,19.49
2022-09-06T06:44:09.970Z,19.39
2022-09-06T06:46:41.741Z,19.39
2022-09-06T06:49:11.294Z,19.53
2022-09-06T06:51:40.289Z,19.61
2022-09-06T06:54:09.352Z,19.59
2022-09-06T06:56:42.292Z,19.51
2022-09-06T06:59:11.516Z,19.51
2022-09-06T07:01:40.692Z,19.46
2022-09-06T07:04:12.006Z,19.55
2022-09-06T07:12:32.288Z,19.62
2022-09-06T07:15:01.565Z,19.66
2022-09-06T07:17:31.034Z,19.64
2022-09-06T07:20:15.931Z,19.72
2022-09-06T07:22:45.699Z,19.70
2022-09-06T07:25:21.000Z,19.70
2022-09-06T07:28:03.915Z,19.77
2022-09-06T07:30:37.488Z,19.74
2022-09-06T07:33:07.162Z,19.78
2022-09-06T07:35:36.285Z,19.86
2022-09-06T07:38:05.723Z,19.83
2022-09-06T07:40:34.696Z,19.90
2022-09-06T07:43:06.326Z,19.92
2022-09-06T07:45:35.722Z,20.00
2022-09-06T07:48:06.696Z,19.99
2022-09-06T07:50:54.626Z,20.01
2022-09-06T07:53:30.797Z,19.91
2022-09-06T07:56:01.802Z,20.02
2022-09-06T07:58:32.687Z,20.19
2022-09-06T08:01:21.752Z,20.11
2022-09-06T08:03:51.006Z,20.17
2022-09-06T08:06:20.139Z,20.21
2022-09-06T08:11:28.067Z,20.60
2022-09-06T08:14:05.567Z,20.52
2022-09-06T08:16:38.458Z,20.51
2022-09-06T08:19:11.016Z,20.59
2022-09-06T08:21:40.435Z,20.51
2022-09-06T08:27:07.654Z,20.71
2022-09-06T08:29:39.997Z,20.74
2022-09-06T08:32:09.107Z,20.75
2022-09-06T08:34:38.313Z,21.04
2022-09-06T08:37:09.679Z,21.17
2022-09-06T08:39:38.901Z,20.81
2022-09-06T08:42:09.954Z,20.88
2022-09-06T08:44:58.870Z,21.02
2022-09-06T08:47:28.545Z,21.15
2022-09-06T08:50:03.051Z,21.32
2022-09-06T08:53:13.190Z,21.24
2022-09-06T08:55:41.224Z,21.23
2022-09-06T08:58:39.789Z,21.21
2022-09-06T09:01:16.807Z,21.13
2022-09-06T09:03:47.786Z,21.52
2022-09-06T09:06:16.864Z,21.44
2022-09-06T09:08:50.981Z,21.55
2022-09-06T09:11:25.510Z,21.93
2022-09-06T09:13:59.395Z,21.65
2022-09-06T09:16:29.978Z,21.63
2022-09-06T09:19:02.390Z,21.61
2022-09-06T09:21:35.226Z,21.62
2022-09-06T09:24:07.631Z,21.77
2022-09-06T09:26:51.629Z,21.88
2022-09-06T09:29:26.739Z,22.04
2022-09-06T09:31:58.986Z,22.25
2022-09-06T09:35:23.397Z,21.93
2022-09-06T09:38:09.321Z,22.10
2022-09-06T09:40:43.675Z,22.19
2022-09-06T09:43:18.015Z,22.38
2022-09-06T09:45:47.982Z,22.36
2022-09-06T09:48:29.845Z,22.43
2022-09-06T09:51:26.219Z,22.48
2022-09-06T09:53:58.051Z,22.44
2022-09-06T09:56:43.609Z,22.52
2022-09-06T09:59:24.002Z,22.74
2022-09-06T10:02:00.154Z,22.85
2022-09-06T10:07:15.024Z,22.97
2022-09-06T10:09:49.221Z,23.10
2022-09-06T10:12:20.658Z,23.17
2022-09-06T10:14:51.053Z,23.34
2022-09-06T10:17:23.993Z,23.55
2022-09-06T10:19:54.831Z,23.33
2022-09-06T10:22:32.642Z,23.32
2022-09-06T10:25:42.971Z,23.44
2022-09-06T10:28:32.728Z,23.59
2022-09-06T10:31:47.563Z,24.00
2022-09-06T10:35:00.160Z,23.81
2022-09-06T10:38:03.742Z,24.05
2022-09-06T10:40:38.541Z,24.04
2022-09-06T10:43:14.935Z,23.97
2022-09-06T10:45:55.287Z,24.18
2022-09-06T10:48:31.387Z,24.51
2022-09-06T10:51:09.151Z,24.46
2022-09-06T10:53:47.044Z,24.67
2022-09-06T10:56:22.341Z,24.51
2022-09-06T11:02:03.402Z,24.94
2022-09-06T11:07:34.591Z,25.11
2022-09-06T11:10:12.323Z,25.27
2022-09-06T11:12:50.887Z,25.15
2022-09-06T11:15:22.072Z,25.21
2022-09-06T11:17:58.349Z,25.51
2022-09-06T11:20:34.846Z,25.86
2022-09-06T11:23:37.320Z,25.92
2022-09-06T11:26:35.816Z,25.75
2022-09-06T11:29:09.231Z,26.21
2022-09-06T11:34:56.288Z,26.39
2022-09-06T11:37:30.778Z,26.63
2022-09-06T11:40:31.876Z,26.83
2022-09-06T11:43:17.432Z,26.85
2022-09-06T11:45:51.091Z,27.24
2022-09-06T11:48:38.108Z,27.47
2022-09-06T11:51:11.041Z,27.85
2022-09-06T11:54:23.458Z,28.09
2022-09-06T11:56:59.246Z,27.89
2022-09-06T11:59:45.581Z,28.40
2022-09-06T12:02:47.612Z,28.63
2022-09-06T12:05:31.658Z,28.64
2022-09-06T12:08:35.413Z,29.01
2022-09-06T12:11:30.222Z,29.01
2022-09-06T12:14:04.568Z,29.42
2022-09-06T12:17:38.928Z,29.23
2022-09-06T12:20:08.829Z,29.62
2022-09-06T12:23:05.255Z,29.73
2022-09-06T12:25:57.307Z,30.05
2022-09-06T12:28:34.774Z,30.10
2022-09-06T12:31:31.126Z,30.48
2022-09-06T12:34:01.017Z,29.74
2022-09-06T12:36:33.238Z,30.41
2022-09-06T12:39:05.273Z,29.74
2022-09-06T12:41:43.455Z,30.24
2022-09-06T12:44:14.817Z,30.37
2022-09-06T12:46:51.538Z,30.27
2022-09-06T12:49:23.677Z,29.88
2022-09-06T12:51:52.768Z,29.38
2022-09-06T12:54:24.775Z,29.91
2022-09-06T12:56:55.056Z,30.03
2022-09-06T12:59:27.292Z,30.09
2022-09-06T13:02:05.279Z,30.78
2022-09-06T13:04:42.269Z,31.23
2022-09-06T13:07:14.776Z,30.66
2022-09-06T13:09:46.950Z,30.42
2022-09-06T13:12:26.526Z,30.58
2022-09-06T13:14:57.078Z,30.75
2022-09-06T13:17:30.810Z,30.71
2022-09-06T13:19:59.947Z,30.26
2022-09-06T13:22:46.073Z,30.31
2022-09-06T13:25:20.828Z,30.17
2022-09-06T13:27:51.996Z,30.63
2022-09-06T13:30:42.159Z,30.87
2022-09-06T13:33:26.213Z,30.92
2022-09-06T13:36:09.804Z,30.49
2022-09-06T13:38:43.599Z,31.38
2022-09-06T13:41:42.993Z,31.24
2022-09-06T13:44:31.245Z,31.65
2022-09-06T13:47:00.522Z,31.46
2022-09-06T13:49:31.887Z,31.72
2022-09-06T13:52:03.481Z,31.31
2022-09-06T13:54:34.195Z,31.28
2022-09-06T13:57:04.170Z,31.30
2022-09-06T13:59:33.112Z,31.44
2022-09-06T14:02:05.371Z,31.58
2022-09-06T14:04:37.572Z,31.92
2022-09-06T14:07:08.183Z,31.49
2022-09-06T14:09:37.629Z,31.45
2022-09-06T14:12:33.521Z,31.61
2022-09-06T14:15:02.765Z,31.19
2022-09-06T14:17:33.020Z,31.44
2022-09-06T14:20:05.574Z,30.55
2022-09-06T14:22:34.618Z,30.73
2022-09-06T14:25:04.010Z,29.91
2022-09-06T14:27:35.369Z,29.51
2022-09-06T14:30:05.032Z,30.19
2022-09-06T14:32:34.568Z,29.82
2022-09-06T14:35:06.006Z,29.60
2022-09-06T14:37:35.603Z,30.39
2022-09-06T14:40:26.150Z,29.78
2022-09-06T14:42:56.051Z,29.82
2022-09-06T14:45:26.065Z,29.34
2022-09-06T14:47:56.270Z,29.24
2022-09-06T14:50:27.282Z,29.36
2022-09-06T14:52:56.959Z,29.23
2022-09-06T14:55:27.805Z,29.10
2022-09-06T14:57:56.934Z,29.23
2022-09-06T15:00:27.161Z,29.02
2022-09-06T15:02:56.774Z,28.72
2022-09-06T15:05:27.515Z,28.97
2022-09-06T15:08:04.280Z,28.86
2022-09-06T15:10:33.898Z,28.77
2022-09-06T15:13:03.379Z,28.66
2022-09-06T15:15:32.685Z,28.64
2022-09-06T15:18:04.933Z,28.63
2022-09-06T15:20:35.505Z,28.48
2022-09-06T15:25:55.281Z,28.28
2022-09-06T15:28:24.318Z,28.33
2022-09-06T15:30:55.900Z,28.18
2022-09-06T15:33:25.319Z,28.22
2022-09-06T15:35:57.575Z,27.97
2022-09-06T15:38:27.273Z,27.83
2022-09-06T15:41:08.235Z,27.73
2022-09-06T15:43:45.308Z,27.68
2022-09-06T15:46:21.111Z,27.52
2022-09-06T15:48:54.039Z,27.51
2022-09-06T15:51:26.444Z,27.49
2022-09-06T15:53:57.210Z,27.45
2022-09-06T15:56:26.250Z,27.57
2022-09-06T15:58:55.469Z,27.30
2022-09-06T16:01:27.232Z,27.21
2022-09-06T16:04:03.704Z,27.22
2022-09-06T16:06:37.825Z,27.11
2022-09-06T16:09:09.892Z,27.12
2022-09-06T16:11:39.791Z,26.99
2022-09-06T16:14:11.969Z,26.83
2022-09-06T16:16:42.436Z,26.84
2022-09-06T16:19:13.656Z,26.87
2022-09-06T16:21:45.004Z,26.86
2022-09-06T16:24:15.235Z,26.80
2022-09-06T16:26:46.658Z,27.14
2022-09-06T16:29:18.417Z,26.94
2022-09-06T16:31:48.595Z,26.75
2022-09-06T16:34:18.189Z,26.54
2022-09-06T16:36:51.107Z,26.53
2022-09-06T16:39:21.126Z,26.66
2022-09-06T16:41:50.176Z,26.29
2022-09-06T16:44:20.753Z,26.18
2022-09-06T16:46:53.207Z,26.08
2022-09-06T16:49:22.362Z,26.10
2022-09-06T16:51:53.320Z,26.01
2022-09-06T16:54:23.017Z,26.16
2022-09-06T16:56:52.699Z,26.04
2022-09-06T16:59:22.105Z,25.89
2022-09-06T17:01:51.701Z,25.72
2022-09-06T17:04:21.075Z,25.66
2022-09-06T17:06:51.690Z,25.64
2022-09-06T17:09:21.148Z,25.56
2022-09-06T17:11:50.876Z,25.67
2022-09-06T17:14:21.249Z,25.46
2022-09-06T17:17:07.727Z,25.50
2022-09-06T17:19:38.383Z,25.46
2022-09-06T17:22:13.668Z,25.45
2022-09-06T17:24:45.054Z,25.30
2022-09-06T17:27:14.273Z,25.14
2022-09-06T17:29:43.314Z,25.23
2022-09-06T17:32:13.879Z,25.21
2022-09-06T17:34:45.204Z,25.08
2022-09-06T17:37:17.244Z,25.04
2022-09-06T17:39:48.200Z,25.07
2022-09-06T17:42:17.503Z,25.10
2022-09-06T17:44:47.063Z,25.12
2022-09-06T17:47:16.358Z,24.92
2022-09-06T17:49:45.988Z,24.90
2022-09-06T17:52:19.285Z,24.80
2022-09-06T17:54:49.191Z,24.75
2022-09-06T17:57:20.921Z,24.72
2022-09-06T17:59:56.266Z,24.77
2022-09-06T18:02:26.328Z,24.50
2022-09-06T18:05:02.993Z,24.47
2022-09-06T18:07:36.981Z,24.28
2022-09-06T18:10:50.489Z,24.29
2022-09-06T18:13:21.471Z,24.44
2022-09-06T18:20:14.793Z,24.37
2022-09-06T18:22:48.627Z,24.39
2022-09-06T18:25:20.298Z,24.24
2022-09-06T18:27:52.706Z,24.05
2022-09-06T18:30:22.606Z,23.60
2022-09-06T18:32:51.892Z,23.47
2022-09-06T18:35:21.528Z,23.21
2022-09-06T18:37:57.456Z,23.38
2022-09-06T18:40:29.497Z,23.45
2022-09-06T18:42:59.774Z,23.04
2022-09-06T18:45:30.340Z,23.07
2022-09-06T18:47:59.739Z,22.95
2022-09-06T18:50:29.222Z,22.85
2022-09-06T18:53:01.425Z,22.92
2022-09-06T18:55:32.393Z,22.59
2022-09-06T18:58:01.581Z,22.39
2022-09-06T19:00:31.208Z,22.01
2022-09-06T19:03:00.343Z,21.89
2022-09-06T19:05:29.665Z,22.20
2022-09-06T19:08:00.181Z,21.92
2022-09-06T19:10:29.811Z,22.28
2022-09-06T19:12:59.462Z,21.99
2022-09-06T19:17:57.994Z,21.50
2022-09-06T19:20:27.184Z,21.46
2022-09-06T19:22:56.294Z,21.47
2022-09-06T19:25:27.371Z,21.59
2022-09-06T19:27:56.435Z,21.82
2022-09-06T19:30:25.778Z,21.44
2022-09-06T19:32:54.669Z,21.32
2022-09-06T19:35:24.204Z,21.29
2022-09-06T19:37:53.414Z,21.29
2022-09-06T19:40:22.832Z,21.36
2022-09-06T19:42:53.781Z,21.39
2022-09-06T19:45:25.696Z,21.30
2022-09-06T19:47:55.027Z,21.31
2022-09-06T19:50:27.426Z,21.30
2022-09-06T19:52:56.647Z,21.06
2022-09-06T19:55:26.054Z,21.11
2022-09-06T19:57:57.585Z,20.89
2022-09-06T20:00:30.389Z,20.89
2022-09-06T20:03:05.836Z,20.99
2022-09-06T20:05:35.144Z,21.04
2022-09-06T20:08:04.408Z,21.04
2022-09-06T20:10:33.434Z,21.11
2022-09-06T20:13:04.836Z,21.07
2022-09-06T20:15:34.100Z,21.19
2022-09-06T20:18:03.275Z,21.09
2022-09-06T20:20:34.725Z,21.09
2022-09-06T20:23:04.891Z,21.19
2022-09-06T20:25:33.883Z,21.30
2022-09-06T20:28:05.961Z,21.19
2022-09-06T20:30:35.720Z,21.09
2022-09-06T20:33:04.783Z,21.13
2022-09-06T20:35:33.977Z,21.06
2022-09-06T20:38:03.368Z,21.09
2022-09-06T20:40:32.504Z,21.11
2022-09-06T20:43:02.312Z,21.08
2022-09-06T20:45:34.289Z,21.07
2022-09-06T20:48:04.117Z,21.06
2022-09-06T20:50:33.093Z,21.09
2022-09-06T20:53:02.244Z,21.11
2022-09-06T20:55:31.518Z,21.10
2022-09-06T20:58:00.486Z,21.10
2022-09-06T21:00:29.608Z,21.08
2022-09-06T21:03:00.456Z,21.06
2022-09-06T21:05:29.799Z,20.99
2022-09-06T21:07:58.946Z,20.99
2022-09-06T21:10:28.501Z,21.03
2022-09-06T21:13:00.502Z,21.15
2022-09-06T21:15:29.789Z,21.10
2022-09-06T21:18:00.838Z,21.02
2022-09-06T21:20:30.266Z,20.98
2022-09-06T21:22:59.484Z,21.01
2022-09-06T21:25:28.982Z,20.77
2022-09-06T21:27:57.940Z,21.13
2022-09-06T21:30:26.969Z,20.91
2022-09-06T21:32:57.098Z,20.78
2022-09-06T21:35:27.769Z,20.77
2022-09-06T21:37:56.877Z,20.77
2022-09-06T21:40:26.342Z,20.72
2022-09-06T21:42:55.272Z,20.65
2022-09-06T21:45:24.134Z,20.69
2022-09-06T21:47:53.252Z,20.64
2022-09-06T21:50:22.735Z,20.70
2022-09-06T21:52:54.241Z,20.68
2022-09-06T21:55:23.226Z,20.70
2022-09-06T21:57:52.594Z,20.58
2022-09-06T22:00:21.742Z,20.56
2022-09-06T22:02:51.498Z,20.67
2022-09-06T22:05:20.706Z,20.64
2022-09-06T22:07:49.845Z,20.53
2022-09-06T22:10:20.299Z,20.51
2022-09-06T22:12:49.636Z,20.49
2022-09-06T22:15:21.614Z,20.67
2022-09-06T22:17:50.979Z,20.57
2022-09-06T22:20:21.295Z,20.58
2022-09-06T22:22:52.015Z,20.53
2022-09-06T22:25:22.362Z,20.57
2022-09-06T22:27:54.421Z,20.40
2022-09-06T22:30:25.728Z,20.31
2022-09-06T22:32:57.562Z,20.47
2022-09-06T22:35:26.494Z,20.35
2022-09-06T22:37:55.680Z,20.45
2022-09-06T22:40:26.613Z,20.35
2022-09-06T22:42:56.053Z,20.31
2022-09-06T22:45:25.237Z,20.20
2022-09-06T22:47:57.930Z,20.25
2022-09-06T22:50:27.617Z,20.34
2022-09-06T22:52:56.887Z,20.21
2022-09-06T22:55:27.599Z,20.30
2022-09-06T22:57:56.992Z,20.38
2022-09-06T23:00:27.530Z,20.25
2022-09-06T23:02:57.460Z,20.28
2022-09-06T23:05:26.700Z,20.07
2022-09-06T23:07:58.022Z,20.35
2022-09-06T23:10:28.642Z,20.27
2022-09-06T23:12:58.705Z,19.98
2022-09-06T23:15:28.742Z,20.06
2022-09-06T23:17:57.895Z,19.98
2022-09-06T23:20:27.197Z,19.82
2022-09-06T23:22:58.907Z,19.77
2022-09-06T23:25:29.848Z,19.99
2022-09-06T23:28:00.558Z,20.13
2022-09-06T23:30:29.525Z,20.29
2022-09-06T23:32:59.176Z,20.02
2022-09-06T23:35:28.253Z,19.84
2022-09-06T23:37:57.781Z,19.73
2022-09-06T23:40:28.421Z,19.79
2022-09-06T23:42:57.626Z,19.80
2022-09-06T23:45:26.859Z,19.86
2022-09-06T23:47:55.904Z,19.83
2022-09-06T23:50:27.358Z,19.79
2022-09-06T23:52:59.730Z,19.72
2022-09-06T23:55:30.698Z,19.67
2022-09-06T23:57:59.835Z,19.53
